createdAt,value
2022-08-25T04:30:59.689Z,68.19
2022-08-25T04:31:59.709Z,68.08
2022-08-25T04:32:59.637Z,66.88
2022-08-25T04:33:59.626Z,66.68
2022-08-25T04:34:59.624Z,67.18
2022-08-25T04:35:59.656Z,67.79
2022-08-25T04:36:59.616Z,68.08
2022-08-25T04:37:59.638Z,67.79
2022-08-25T04:38:59.634Z,68.69
2022-08-25T04:39:59.613Z,68.59
2022-08-25T04:40:59.557Z,68.32
2022-08-25T04:41:59.590Z,67.99
2022-08-25T04:42:59.524Z,68.08
2022-08-25T04:43:59.539Z,68.59
2022-08-25T04:44:59.499Z,69.12
2022-08-25T04:45:59.577Z,69.22
2022-08-25T04:46:59.534Z,69.22
2022-08-25T04:47:59.467Z,69.32
2022-08-25T04:48:59.480Z,68.82
2022-08-25T04:49:59.453Z,68.72
2022-08-25T04:50:59.450Z,68.02
2022-08-25T04:51:59.487Z,67.99
2022-08-25T04:52:59.422Z,67.79
2022-08-25T04:53:59.426Z,67.79
2022-08-25T04:54:59.422Z,68.08
2022-08-25T04:56:03.216Z,67.25
2022-08-25T04:56:59.368Z,66.99
2022-08-25T04:57:59.427Z,66.88
2022-08-25T04:58:59.358Z,66.65
2022-08-25T04:59:59.407Z,66.85
2022-08-25T05:00:59.385Z,66.85
2022-08-25T05:01:59.488Z,67.25
2022-08-25T05:02:59.305Z,66.85
2022-08-25T05:03:59.314Z,66.12
2022-08-25T05:04:59.303Z,66.52
2022-08-25T05:05:59.290Z,66.52
2022-08-25T05:06:59.278Z,66.12
2022-08-25T05:07:59.313Z,66.12
2022-08-25T05:08:59.239Z,66.22
2022-08-25T05:09:59.246Z,66.62
2022-08-25T05:10:59.218Z,66.09
2022-08-25T05:11:59.254Z,66.69
2022-08-25T05:12:59.197Z,66.09
2022-08-25T05:13:59.198Z,66.39
2022-08-25T05:14:59.204Z,66.49
2022-08-25T05:16:00.238Z,66.28
2022-08-25T05:16:59.157Z,65.89
2022-08-25T05:17:59.155Z,69.59
2022-08-25T05:18:59.131Z,65.59
2022-08-25T05:19:59.116Z,65.48
2022-08-25T05:20:59.128Z,65.19
2022-08-25T05:21:59.108Z,65.28
2022-08-25T05:22:59.113Z,65.19
2022-08-25T05:23:59.079Z,65.39
2022-08-25T05:24:59.125Z,65.09
2022-08-25T05:25:59.049Z,65.95
2022-08-25T05:26:59.060Z,65.99
2022-08-25T05:27:59.103Z,65.95
2022-08-25T05:28:59.053Z,65.75
2022-08-25T05:29:59.010Z,65.25
2022-08-25T05:30:59.049Z,66.55
2022-08-25T05:31:59.088Z,65.45
2022-08-25T05:32:58.980Z,66.46
2022-08-25T05:33:58.975Z,65.36
2022-08-25T05:34:58.973Z,65.25
2022-08-25T05:35:58.943Z,65.75
2022-08-25T05:36:58.936Z,66.05
2022-08-25T05:37:58.993Z,65.42
2022-08-25T05:38:58.912Z,66.02
2022-08-25T05:39:58.945Z,65.75
2022-08-25T05:40:58.892Z,65.36
2022-08-25T05:41:58.911Z,65.45
2022-08-25T05:42:58.870Z,65.22
2022-08-25T05:43:58.862Z,65.12
2022-08-25T05:44:58.847Z,65.22
2022-08-25T05:45:58.912Z,65.62
2022-08-25T05:46:58.867Z,65.62
2022-08-25T05:47:58.814Z,65.72
2022-08-25T05:48:58.806Z,66.13
2022-08-25T05:49:58.797Z,66.13
2022-08-25T05:50:58.784Z,66.22
2022-08-25T05:51:58.777Z,66.09
2022-08-25T05:52:58.800Z,65.62
2022-08-25T05:53:58.751Z,65.62
2022-08-25T05:54:58.746Z,65.33
2022-08-25T05:55:58.750Z,65.79
2022-08-25T05:56:58.719Z,65.79
2022-08-25T05:57:58.709Z,65.59
2022-08-25T05:58:58.736Z,65.09
2022-08-25T05:59:58.681Z,65.49
2022-08-25T06:00:58.736Z,65.19
2022-08-25T06:01:58.662Z,65.19
2022-08-25T06:02:58.686Z,65.46
2022-08-25T06:03:58.701Z,65.16
2022-08-25T06:04:58.638Z,65.49
2022-08-25T06:05:58.639Z,65.56
2022-08-25T06:06:58.619Z,65.26
2022-08-25T06:07:58.613Z,65.26
2022-08-25T06:08:58.608Z,64.76
2022-08-25T06:09:58.579Z,64.66
2022-08-25T06:10:58.569Z,64.56
2022-08-25T06:11:58.599Z,64.93
2022-08-25T06:12:58.564Z,65.53
2022-08-25T06:13:58.553Z,65.03
2022-08-25T06:14:58.532Z,64.83
2022-08-25T06:15:58.560Z,64.90
2022-08-25T06:16:58.502Z,64.90
2022-08-25T06:18:01.614Z,64.60
2022-08-25T06:18:58.495Z,64.80
2022-08-25T06:19:58.502Z,63.90
2022-08-25T06:20:58.463Z,63.87
2022-08-25T06:21:58.457Z,64.17
2022-08-25T06:22:58.436Z,63.67
2022-08-25T06:23:58.445Z,63.84
2022-08-25T06:24:58.418Z,63.67
2022-08-25T06:25:58.421Z,63.74
2022-08-25T06:26:58.392Z,63.24
2022-08-25T06:27:58.391Z,63.14
2022-08-25T06:28:58.373Z,63.01
2022-08-25T06:29:58.368Z,62.81
2022-08-25T06:30:59.361Z,62.78
2022-08-25T06:31:58.392Z,62.98
2022-08-25T06:32:58.335Z,62.59
2022-08-25T06:33:58.318Z,61.79
2022-08-25T06:34:58.305Z,61.79
2022-08-25T06:35:58.321Z,62.18
2022-08-25T06:36:58.295Z,62.59
2022-08-25T06:37:58.284Z,61.79
2022-08-25T06:38:58.287Z,62.15
2022-08-25T06:39:58.355Z,62.65
2022-08-25T06:40:58.241Z,62.92
2022-08-25T06:41:58.247Z,61.53
2022-08-25T06:42:58.257Z,61.20
2022-08-25T06:44:05.576Z,61.40
2022-08-25T06:44:59.214Z,60.60
2022-08-25T06:45:58.187Z,60.57
2022-08-25T06:46:58.196Z,60.87
2022-08-25T06:47:58.186Z,60.17
2022-08-25T06:48:58.188Z,60.64
2022-08-25T06:49:58.163Z,60.35
2022-08-25T06:50:58.133Z,59.92
2022-08-25T06:51:58.126Z,59.92
2022-08-25T06:52:58.115Z,59.32
2022-08-25T06:53:58.111Z,59.72
2022-08-25T06:54:58.233Z,59.59
2022-08-25T06:55:58.081Z,59.79
2022-08-25T06:56:58.133Z,59.30
2022-08-25T06:57:58.050Z,58.57
2022-08-25T06:58:58.062Z,58.97
2022-08-25T06:59:58.049Z,58.94
2022-08-25T07:00:58.065Z,58.74
2022-08-25T07:01:58.099Z,58.34
2022-08-25T07:02:58.039Z,58.64
2022-08-25T07:03:57.989Z,57.75
2022-08-25T07:04:57.992Z,57.92
2022-08-25T07:05:57.988Z,57.75
2022-08-25T07:06:57.954Z,58.22
2022-08-25T07:07:57.943Z,58.51
2022-08-25T07:08:57.951Z,57.79
2022-08-25T07:09:57.942Z,57.20
2022-08-25T07:10:57.921Z,58.78
2022-08-25T07:11:57.903Z,58.72
2022-08-25T07:12:57.903Z,58.19
2022-08-25T07:13:57.892Z,58.09
2022-08-25T07:15:17.146Z,56.80
2022-08-25T07:15:58.891Z,57.79
2022-08-25T07:16:57.867Z,57.99
2022-08-25T07:17:57.832Z,57.46
2022-08-25T07:18:57.825Z,56.90
2022-08-25T07:19:57.869Z,58.09
2022-08-25T07:20:57.821Z,57.99
2022-08-25T07:21:57.821Z,58.56
2022-08-25T07:22:57.803Z,57.86
2022-08-25T07:23:57.775Z,56.97
2022-08-25T07:24:57.785Z,57.93
2022-08-25T07:25:57.767Z,57.81
2022-08-25T07:26:57.741Z,57.71
2022-08-25T07:28:58.720Z,55.83
2022-08-25T07:29:57.729Z,56.82
2022-08-25T07:30:57.747Z,57.71
2022-08-25T07:31:57.777Z,56.49
2022-08-25T07:32:57.675Z,56.46
2022-08-25T07:33:57.688Z,56.07
2022-08-25T07:34:57.667Z,55.47
2022-08-25T07:35:57.640Z,55.38
2022-08-25T07:36:57.627Z,56.17
2022-08-25T07:37:57.637Z,55.47
2022-08-25T07:38:57.630Z,56.20
2022-08-25T07:39:57.683Z,56.20
2022-08-25T07:40:57.621Z,56.10
2022-08-25T07:41:57.585Z,57.75
2022-08-25T07:42:57.567Z,56.57
2022-08-25T07:43:57.572Z,56.76
2022-08-25T07:44:57.570Z,56.34
2022-08-25T07:45:57.543Z,56.63
2022-08-25T07:46:57.552Z,55.52
2022-08-25T07:47:57.522Z,56.12
2022-08-25T07:48:57.503Z,55.43
2022-08-25T07:49:57.566Z,55.22
2022-08-25T07:50:57.484Z,55.22
2022-08-25T07:52:05.697Z,55.22
2022-08-25T07:52:58.461Z,55.92
2022-08-25T07:53:57.499Z,55.30
2022-08-25T07:54:57.448Z,55.33
2022-08-25T07:55:57.546Z,54.83
2022-08-25T07:56:57.420Z,55.52
2022-08-25T07:57:57.551Z,55.72
2022-08-25T07:58:57.415Z,54.93
2022-08-25T07:59:57.516Z,55.52
2022-08-25T08:00:57.381Z,55.43
2022-08-25T08:01:57.479Z,55.82
2022-08-25T08:02:57.405Z,55.69
2022-08-25T08:04:00.397Z,56.09
2022-08-25T08:04:57.336Z,54.90
2022-08-25T08:05:57.320Z,55.37
2022-08-25T08:06:57.329Z,55.18
2022-08-25T08:07:57.330Z,54.48
2022-08-25T08:08:57.981Z,54.58
2022-08-25T08:10:32.827Z,55.07
2022-08-25T08:11:04.610Z,55.15
2022-08-25T08:11:58.256Z,54.85
2022-08-25T08:12:57.283Z,54.36
2022-08-25T08:13:57.247Z,54.46
2022-08-25T08:14:57.243Z,54.53
2022-08-25T08:15:57.384Z,53.94
2022-08-25T08:16:57.205Z,55.32
2022-08-25T08:17:57.893Z,54.13
2022-08-25T08:18:57.187Z,54.55
2022-08-25T08:19:57.191Z,54.72
2022-08-25T08:20:57.188Z,55.22
2022-08-25T08:21:57.165Z,53.81
2022-08-25T08:22:57.149Z,54.11
2022-08-25T08:23:59.048Z,53.39
2022-08-25T08:24:57.219Z,53.69
2022-08-25T08:25:57.130Z,54.08
2022-08-25T08:26:59.140Z,53.99
2022-08-25T08:27:57.089Z,53.56
2022-08-25T08:28:57.189Z,53.86
2022-08-25T08:29:57.098Z,53.76
2022-08-25T08:30:57.093Z,54.05
2022-08-25T08:31:57.047Z,52.87
2022-08-25T08:33:09.582Z,52.58
2022-08-25T08:33:58.055Z,53.00
2022-08-25T08:34:57.036Z,53.86
2022-08-25T08:35:57.033Z,52.78
2022-08-25T08:36:56.993Z,52.78
2022-08-25T08:37:57.029Z,53.27
2022-08-25T08:38:56.969Z,53.27
2022-08-25T08:39:56.998Z,53.27
2022-08-25T08:40:57.042Z,53.07
2022-08-25T08:42:12.379Z,52.48
2022-08-25T08:42:57.930Z,53.27
2022-08-25T08:43:56.946Z,52.48
2022-08-25T08:44:59.155Z,52.85
2022-08-25T08:45:56.914Z,52.92
2022-08-25T08:46:56.984Z,52.14
2022-08-25T08:47:56.891Z,51.91
2022-08-25T08:48:56.857Z,52.21
2022-08-25T08:49:56.865Z,51.62
2022-08-25T08:50:56.836Z,51.91
2022-08-25T08:51:56.827Z,52.40
2022-08-25T08:52:56.850Z,51.91
2022-08-25T08:53:57.358Z,51.98
2022-08-25T08:54:56.826Z,51.72
2022-08-25T08:55:56.820Z,51.62
2022-08-25T08:56:56.840Z,51.59
2022-08-25T08:57:56.766Z,51.59
2022-08-25T08:58:56.755Z,51.59
2022-08-25T08:59:56.826Z,50.90
2022-08-25T09:00:56.733Z,51.10
2022-08-25T09:01:56.800Z,50.78
2022-08-25T09:02:56.772Z,50.51
2022-08-25T09:03:56.697Z,51.00
2022-08-25T09:04:56.713Z,51.32
2022-08-25T09:05:56.692Z,51.72
2022-08-25T09:06:56.672Z,51.98
2022-08-25T09:07:56.687Z,51.20
2022-08-25T09:08:56.679Z,51.57
2022-08-25T09:09:56.659Z,51.47
2022-08-25T09:10:56.629Z,50.76
2022-08-25T09:11:56.632Z,50.59
2022-08-25T09:12:56.644Z,51.37
2022-08-25T09:13:56.603Z,50.78
2022-08-25T09:14:56.592Z,50.98
2022-08-25T09:15:57.531Z,50.78
2022-08-25T09:16:56.586Z,50.85
2022-08-25T09:17:56.558Z,50.54
2022-08-25T09:18:56.550Z,50.37
2022-08-25T09:19:56.535Z,50.66
2022-08-25T09:20:56.565Z,51.52
2022-08-25T09:21:56.535Z,50.24
2022-08-25T09:22:56.518Z,50.34
2022-08-25T09:23:56.517Z,50.44
2022-08-25T09:24:56.484Z,49.97
2022-08-25T09:25:56.473Z,51.07
2022-08-25T09:26:56.492Z,51.86
2022-08-25T09:27:56.448Z,50.76
2022-08-25T09:28:56.502Z,50.95
2022-08-25T09:29:56.453Z,50.24
2022-08-25T09:30:56.667Z,50.04
2022-08-25T09:31:56.437Z,50.24
2022-08-25T09:32:56.392Z,49.65
2022-08-25T09:33:56.408Z,50.12
2022-08-25T09:34:56.374Z,49.53
2022-08-25T09:35:57.497Z,49.43
2022-08-25T09:36:56.384Z,49.24
2022-08-25T09:37:56.359Z,49.92
2022-08-25T09:38:56.331Z,50.12
2022-08-25T09:39:56.362Z,50.22
2022-08-25T09:40:56.307Z,49.80
2022-08-25T09:41:56.347Z,49.11
2022-08-25T09:42:58.057Z,49.41
2022-08-25T09:43:56.286Z,48.82
2022-08-25T09:44:56.292Z,49.11
2022-08-25T09:45:56.278Z,49.19
2022-08-25T09:46:56.260Z,49.29
2022-08-25T09:47:56.269Z,50.15
2022-08-25T09:48:56.713Z,49.14
2022-08-25T09:49:56.231Z,48.85
2022-08-25T09:50:56.213Z,48.94
2022-08-25T09:51:56.262Z,49.11
2022-08-25T09:52:56.183Z,47.26
2022-08-25T09:53:56.213Z,47.55
2022-08-25T09:54:56.268Z,47.26
2022-08-25T09:55:59.884Z,47.16
2022-08-25T09:56:56.152Z,47.24
2022-08-25T09:57:56.135Z,46.67
2022-08-25T09:59:00.053Z,47.45
2022-08-25T09:59:57.684Z,46.94
2022-08-25T10:00:56.112Z,46.65
2022-08-25T10:01:56.177Z,45.89
2022-08-25T10:02:56.085Z,47.06
2022-08-25T10:03:56.110Z,46.08
2022-08-25T10:04:56.163Z,45.20
2022-08-25T10:05:56.258Z,46.67
2022-08-25T10:06:56.073Z,46.18
2022-08-25T10:07:56.042Z,46.28
2022-08-25T10:08:56.028Z,46.45
2022-08-25T10:09:56.006Z,45.89
2022-08-25T10:10:56.002Z,47.04
2022-08-25T10:11:57.949Z,45.79
2022-08-25T10:12:55.990Z,46.26
2022-08-25T10:13:55.968Z,46.36
2022-08-25T10:14:55.957Z,47.43
2022-08-25T10:15:56.051Z,45.18
2022-08-25T10:16:55.948Z,47.24
2022-08-25T10:17:55.924Z,46.82
2022-08-25T10:18:55.907Z,44.96
2022-08-25T10:19:55.913Z,46.26
2022-08-25T10:20:55.920Z,46.06
2022-08-25T10:21:55.880Z,45.18
2022-08-25T10:22:55.864Z,45.84
2022-08-25T10:23:55.862Z,45.55
2022-08-25T10:24:55.880Z,44.98
2022-08-25T10:25:57.936Z,45.28
2022-08-25T10:26:56.842Z,44.98
2022-08-25T10:27:55.851Z,45.18
2022-08-25T10:28:55.837Z,44.98
2022-08-25T10:29:55.789Z,45.20
2022-08-25T10:30:55.825Z,45.20
2022-08-25T10:31:55.786Z,45.98
2022-08-25T10:32:55.818Z,45.01
2022-08-25T10:33:55.755Z,45.81
2022-08-25T10:34:55.743Z,46.79
2022-08-25T10:35:55.732Z,45.30
2022-08-25T10:36:56.125Z,45.30
2022-08-25T10:37:55.745Z,46.84
2022-08-25T10:38:55.718Z,45.06
2022-08-25T10:39:55.922Z,44.48
2022-08-25T10:40:55.691Z,45.55
2022-08-25T10:41:55.705Z,44.38
2022-08-25T10:42:55.659Z,45.16
2022-08-25T10:43:55.666Z,44.45
2022-08-25T10:44:55.654Z,44.16
2022-08-25T10:45:55.670Z,44.26
2022-08-25T10:46:55.640Z,44.55
2022-08-25T10:47:55.636Z,44.14
2022-08-25T10:48:55.604Z,43.67
2022-08-25T10:49:55.588Z,44.53
2022-08-25T10:50:55.618Z,43.36
2022-08-25T10:51:55.604Z,43.07
2022-08-25T10:52:55.561Z,42.97
2022-08-25T10:53:56.130Z,44.74
2022-08-25T10:54:55.536Z,43.16
2022-08-25T10:55:55.525Z,43.16
2022-08-25T10:56:58.498Z,43.96
2022-08-25T10:57:55.635Z,43.36
2022-08-25T10:58:55.540Z,44.53
2022-08-25T10:59:55.482Z,43.28
2022-08-25T11:00:55.590Z,43.07
2022-08-25T11:01:55.487Z,43.57
2022-08-25T11:02:55.455Z,42.79
2022-08-25T11:03:55.510Z,43.59
2022-08-25T11:04:55.459Z,43.69
2022-08-25T11:05:55.433Z,43.01
2022-08-25T11:06:55.417Z,43.87
2022-08-25T11:07:55.499Z,43.38
2022-08-25T11:08:55.410Z,43.38
2022-08-25T11:09:55.385Z,43.26
2022-08-25T11:10:55.394Z,43.38
2022-08-25T11:11:55.365Z,43.46
2022-08-25T11:12:55.344Z,43.16
2022-08-25T11:13:55.359Z,42.29
2022-08-25T11:14:55.328Z,42.48
2022-08-25T11:16:15.982Z,42.97
2022-08-25T11:16:56.372Z,43.46
2022-08-25T11:17:55.472Z,42.77
2022-08-25T11:18:55.322Z,42.99
2022-08-25T11:19:55.275Z,43.08
2022-08-25T11:20:55.268Z,43.46
2022-08-25T11:21:55.280Z,43.38
2022-08-25T11:22:55.421Z,42.69
2022-08-25T11:23:55.233Z,43.18
2022-08-25T11:24:55.223Z,43.08
2022-08-25T11:25:55.210Z,43.36
2022-08-25T11:26:55.225Z,42.77
2022-08-25T11:27:55.191Z,42.75
2022-08-25T11:28:55.189Z,42.26
2022-08-25T11:29:55.189Z,42.46
2022-08-25T11:30:55.231Z,42.75
2022-08-25T11:31:55.162Z,42.05
2022-08-25T11:32:55.271Z,42.54
2022-08-25T11:33:55.134Z,42.46
2022-08-25T11:34:55.137Z,42.16
2022-08-25T11:35:55.132Z,41.80
2022-08-25T11:36:55.094Z,42.48
2022-08-25T11:37:55.128Z,42.97
2022-08-25T11:38:55.105Z,42.16
2022-08-25T11:39:55.091Z,41.99
2022-08-25T11:40:55.092Z,42.09
2022-08-25T11:41:55.113Z,43.07
2022-08-25T11:42:55.089Z,42.48
2022-08-25T11:43:55.073Z,41.99
2022-08-25T11:44:55.199Z,42.69
2022-08-25T11:45:55.101Z,42.79
2022-08-25T11:46:55.004Z,44.14
2022-08-25T11:47:55.006Z,42.55
2022-08-25T11:48:55.061Z,41.48
2022-08-25T11:49:55.006Z,41.19
2022-08-25T11:50:55.003Z,40.99
2022-08-25T11:51:54.951Z,41.02
2022-08-25T11:52:56.053Z,41.31
2022-08-25T11:53:54.957Z,41.21
2022-08-25T11:54:54.913Z,41.99
2022-08-25T11:55:54.936Z,42.09
2022-08-25T11:56:54.895Z,42.26
2022-08-25T11:57:54.932Z,41.67
2022-08-25T11:58:54.871Z,42.16
2022-08-25T11:59:54.863Z,42.16
2022-08-25T12:00:54.868Z,41.48
2022-08-25T12:01:54.851Z,42.36
2022-08-25T12:02:58.395Z,41.97
2022-08-25T12:03:55.030Z,41.19
2022-08-25T12:04:54.853Z,41.48
2022-08-25T12:05:54.824Z,41.38
2022-08-25T12:06:54.794Z,42.34
2022-08-25T12:07:54.784Z,41.27
2022-08-25T12:08:57.488Z,41.36
2022-08-25T12:09:54.758Z,42.05
2022-08-25T12:10:54.748Z,41.27
2022-08-25T12:11:54.758Z,40.78
2022-08-25T12:12:54.814Z,40.78
2022-08-25T12:13:54.735Z,41.38
2022-08-25T12:14:54.766Z,42.55
2022-08-25T12:15:54.701Z,42.55
2022-08-25T12:16:54.752Z,42.19
2022-08-25T12:17:54.683Z,42.48
2022-08-25T12:18:54.670Z,43.04
2022-08-25T12:19:54.695Z,42.55
2022-08-25T12:20:54.653Z,42.36
2022-08-25T12:21:54.643Z,42.24
2022-08-25T12:22:54.652Z,41.77
2022-08-25T12:23:54.621Z,42.55
2022-08-25T12:24:54.619Z,42.77
2022-08-25T12:25:54.598Z,42.09
2022-08-25T12:26:54.597Z,42.48
2022-08-25T12:27:54.584Z,42.29
2022-08-25T12:28:54.558Z,42.07
2022-08-25T12:29:54.547Z,42.07
2022-08-25T12:30:54.594Z,41.97
2022-08-25T12:31:54.528Z,42.46
2022-08-25T12:32:54.602Z,41.19
2022-08-25T12:33:54.519Z,41.67
2022-08-25T12:34:54.499Z,41.38
2022-08-25T12:35:54.517Z,42.36
2022-08-25T12:36:54.475Z,40.68
2022-08-25T12:37:54.467Z,41.07
2022-08-25T12:38:54.495Z,41.28
2022-08-25T12:39:54.513Z,41.17
2022-08-25T12:40:54.460Z,40.89
2022-08-25T12:41:54.462Z,40.60
2022-08-25T12:42:54.416Z,41.09
2022-08-25T12:43:54.441Z,41.48
2022-08-25T12:44:54.414Z,41.09
2022-08-25T12:45:54.461Z,40.58
2022-08-25T12:46:54.381Z,39.23
2022-08-25T12:47:54.358Z,39.43
2022-08-25T12:48:54.353Z,39.92
2022-08-25T12:49:54.343Z,40.50
2022-08-25T12:50:54.361Z,40.14
2022-08-25T12:51:54.346Z,40.33
2022-08-25T12:52:54.312Z,41.11
2022-08-25T12:53:54.301Z,41.11
2022-08-25T12:54:54.323Z,40.43
2022-08-25T12:55:54.278Z,40.14
2022-08-25T12:56:54.277Z,39.96
2022-08-25T12:57:54.267Z,40.25
2022-08-25T12:59:00.920Z,39.96
2022-08-25T12:59:55.260Z,40.66
2022-08-25T13:00:56.760Z,40.86
2022-08-25T13:01:55.324Z,40.95
2022-08-25T13:02:54.301Z,41.54
2022-08-25T13:03:54.225Z,41.72
2022-08-25T13:04:54.195Z,42.01
2022-08-25T13:05:54.193Z,40.92
2022-08-25T13:06:54.170Z,40.23
2022-08-25T13:07:54.160Z,40.16
2022-08-25T13:08:54.155Z,39.67
2022-08-25T13:09:54.159Z,39.67
2022-08-25T13:10:54.157Z,39.76
2022-08-25T13:11:54.114Z,39.57
2022-08-25T13:12:54.199Z,39.57
2022-08-25T13:13:54.094Z,40.08
2022-08-25T13:14:54.103Z,39.98
2022-08-25T13:15:54.092Z,40.27
2022-08-25T13:16:54.199Z,40.76
2022-08-25T13:17:54.069Z,40.17
2022-08-25T13:18:54.048Z,40.56
2022-08-25T13:19:54.053Z,41.05
2022-08-25T13:20:54.046Z,41.15
2022-08-25T13:21:54.714Z,41.25
2022-08-25T13:23:06.509Z,41.54
2022-08-25T13:24:04.601Z,41.83
2022-08-25T13:24:55.003Z,39.88
2022-08-25T13:25:53.992Z,40.08
2022-08-25T13:26:53.962Z,40.19
2022-08-25T13:27:53.959Z,40.19
2022-08-25T13:28:53.942Z,41.00
2022-08-25T13:29:53.927Z,40.60
2022-08-25T13:30:53.921Z,40.60
2022-08-25T13:31:53.988Z,41.58
2022-08-25T13:32:53.982Z,41.39
2022-08-25T13:33:54.845Z,41.07
2022-08-25T13:34:53.887Z,40.68
2022-08-25T13:35:53.890Z,42.35
2022-08-25T13:36:54.091Z,42.35
2022-08-25T13:37:53.839Z,41.36
2022-08-25T13:38:53.862Z,40.47
2022-08-25T13:39:56.722Z,41.36
2022-08-25T13:40:53.891Z,40.97
2022-08-25T13:41:55.524Z,40.97
2022-08-25T13:42:56.115Z,40.19
2022-08-25T13:43:53.785Z,40.39
2022-08-25T13:44:53.953Z,40.39
2022-08-25T13:45:53.787Z,40.29
2022-08-25T13:46:53.798Z,41.07
2022-08-25T13:47:55.694Z,40.39
2022-08-25T13:48:53.732Z,39.61
2022-08-25T13:49:56.569Z,40.29
2022-08-25T13:50:53.714Z,40.39
2022-08-25T13:51:53.712Z,40.68
2022-08-25T13:52:53.718Z,40.68
2022-08-25T13:53:53.713Z,40.39
2022-08-25T13:54:53.683Z,40.60
2022-08-25T13:55:53.663Z,40.00
2022-08-25T13:56:53.646Z,40.00
2022-08-25T13:57:53.652Z,40.60
2022-08-25T13:58:53.626Z,40.21
2022-08-25T13:59:53.613Z,39.92
2022-08-25T14:00:53.731Z,39.53
2022-08-25T14:01:53.794Z,39.82
2022-08-25T14:02:53.695Z,40.31
2022-08-25T14:03:53.564Z,40.31
2022-08-25T14:04:53.945Z,40.21
2022-08-25T14:05:53.543Z,40.21
2022-08-25T14:06:53.614Z,40.21
2022-08-25T14:08:09.112Z,40.70
2022-08-25T14:08:54.817Z,40.41
2022-08-25T14:09:53.504Z,40.53
2022-08-25T14:10:53.493Z,40.03
2022-08-25T14:11:53.493Z,40.23
2022-08-25T14:12:53.536Z,40.53
2022-08-25T14:13:53.464Z,40.62
2022-08-25T14:14:53.457Z,40.03
2022-08-25T14:15:53.461Z,41.21
2022-08-25T14:16:54.205Z,40.23
2022-08-25T14:17:53.455Z,40.23
2022-08-25T14:18:53.437Z,40.62
2022-08-25T14:19:53.397Z,40.50
2022-08-25T14:20:53.410Z,40.31
2022-08-25T14:21:56.782Z,40.60
2022-08-25T14:22:53.397Z,40.31
2022-08-25T14:23:53.384Z,39.64
2022-08-25T14:24:53.337Z,39.94
2022-08-25T14:25:53.364Z,39.64
2022-08-25T14:26:53.821Z,39.74
2022-08-25T14:28:08.803Z,40.33
2022-08-25T14:28:54.301Z,40.25
2022-08-25T14:29:53.327Z,40.23
2022-08-25T14:30:53.287Z,41.60
2022-08-25T14:31:53.323Z,40.53
2022-08-25T14:32:53.260Z,40.33
2022-08-25T14:33:53.253Z,39.56
2022-08-25T14:34:53.267Z,39.86
2022-08-25T14:35:53.715Z,39.86
2022-08-25T14:36:53.242Z,40.45
2022-08-25T14:37:53.242Z,40.25
2022-08-25T14:38:54.558Z,39.96
2022-08-25T14:39:53.279Z,41.33
2022-08-25T14:40:53.208Z,40.94
2022-08-25T14:41:53.328Z,39.66
2022-08-25T14:42:53.174Z,40.35
2022-08-25T14:43:53.172Z,39.88
2022-08-25T14:44:53.154Z,40.06
2022-08-25T14:45:53.189Z,40.16
2022-08-25T14:46:53.123Z,39.66
2022-08-25T14:47:53.110Z,40.17
2022-08-25T14:48:53.128Z,39.69
2022-08-25T14:49:53.125Z,39.88
2022-08-25T14:50:53.084Z,41.15
2022-08-25T14:51:53.076Z,41.64
2022-08-25T14:52:53.168Z,39.78
2022-08-25T14:53:54.060Z,40.06
2022-08-25T14:54:53.057Z,40.64
2022-08-25T14:55:53.058Z,40.27
2022-08-25T14:56:53.014Z,40.37
2022-08-25T14:57:53.030Z,38.88
2022-08-25T14:58:54.304Z,39.09
2022-08-25T14:59:53.043Z,39.19
2022-08-25T15:00:53.061Z,39.69
2022-08-25T15:01:52.967Z,39.88
2022-08-25T15:02:53.030Z,39.09
2022-08-25T15:03:53.048Z,38.80
2022-08-25T15:04:52.936Z,39.19
2022-08-25T15:05:52.923Z,39.09
2022-08-25T15:06:52.931Z,39.39
2022-08-25T15:07:52.917Z,39.29
2022-08-25T15:08:52.896Z,38.80
2022-08-25T15:09:52.885Z,39.09
2022-08-25T15:10:52.880Z,38.62
2022-08-25T15:11:52.881Z,39.29
2022-08-25T15:12:54.072Z,40.08
2022-08-25T15:13:52.867Z,39.88
2022-08-25T15:14:52.834Z,40.29
2022-08-25T15:15:53.274Z,39.88
2022-08-25T15:16:52.925Z,39.22
2022-08-25T15:17:52.815Z,39.90
2022-08-25T15:18:52.807Z,40.00
2022-08-25T15:19:52.777Z,39.70
2022-08-25T15:20:52.764Z,39.72
2022-08-25T15:21:52.781Z,39.82
2022-08-25T15:22:52.760Z,38.92
2022-08-25T15:23:56.227Z,39.53
2022-08-25T15:24:52.723Z,39.43
2022-08-25T15:25:53.133Z,40.09
2022-08-25T15:27:52.774Z,39.43
2022-08-25T15:28:52.699Z,40.31
2022-08-25T15:29:52.675Z,39.92
2022-08-25T15:30:52.677Z,39.72
2022-08-25T15:31:52.714Z,39.53
2022-08-25T15:32:52.664Z,39.22
2022-08-25T15:33:52.664Z,39.82
2022-08-25T15:34:52.636Z,40.41
2022-08-25T15:35:52.603Z,41.49
2022-08-25T15:36:52.598Z,40.01
2022-08-25T15:37:52.603Z,42.47
2022-08-25T15:38:52.597Z,41.98
2022-08-25T15:39:52.610Z,40.51
2022-08-25T15:40:52.573Z,40.51
2022-08-25T15:41:52.608Z,39.74
2022-08-25T15:42:52.526Z,40.62
2022-08-25T15:43:52.512Z,40.31
2022-08-25T15:44:53.295Z,40.43
2022-08-25T15:45:52.512Z,41.31
2022-08-25T15:46:52.573Z,41.58
2022-08-25T15:47:53.985Z,41.58
2022-08-25T15:48:52.497Z,41.71
2022-08-25T15:49:52.463Z,42.68
2022-08-25T15:50:52.444Z,40.03
2022-08-25T15:51:52.582Z,42.58
2022-08-25T15:52:52.440Z,40.55
2022-08-25T15:53:52.403Z,41.02
2022-08-25T15:54:52.425Z,40.82
2022-08-25T15:55:52.430Z,40.53
2022-08-25T15:56:52.378Z,41.41
2022-08-25T15:57:52.387Z,42.10
2022-08-25T15:58:52.372Z,41.11
2022-08-25T15:59:52.349Z,41.71
2022-08-25T16:00:56.574Z,41.41
2022-08-25T16:01:52.385Z,41.71
2022-08-25T16:02:52.348Z,41.21
2022-08-25T16:03:52.329Z,42.29
2022-08-25T16:04:52.324Z,40.43
2022-08-25T16:05:52.283Z,42.19
2022-08-25T16:06:52.417Z,42.39
2022-08-25T16:07:52.284Z,43.27
2022-08-25T16:08:52.252Z,45.24
2022-08-25T16:09:52.258Z,45.34
2022-08-25T16:10:52.239Z,44.87
2022-08-25T16:11:56.852Z,45.55
2022-08-25T16:12:53.226Z,44.79
2022-08-25T16:13:52.193Z,43.39
2022-08-25T16:14:52.251Z,43.12
2022-08-25T16:15:54.187Z,43.12
2022-08-25T16:16:52.167Z,43.32
2022-08-25T16:17:52.162Z,43.61
2022-08-25T16:18:52.165Z,44.20
2022-08-25T16:19:52.137Z,43.32
2022-08-25T16:20:52.122Z,43.02
2022-08-25T16:21:52.116Z,42.63
2022-08-25T16:22:52.143Z,43.61
2022-08-25T16:23:52.102Z,42.53
2022-08-25T16:24:52.079Z,43.12
2022-08-25T16:25:52.076Z,43.22
2022-08-25T16:26:52.076Z,42.72
2022-08-25T16:27:52.082Z,42.72
2022-08-25T16:28:52.041Z,41.94
2022-08-25T16:29:52.026Z,41.64
2022-08-25T16:30:52.899Z,42.33
2022-08-25T16:31:53.377Z,41.74
2022-08-25T16:32:52.011Z,42.72
2022-08-25T16:33:54.751Z,42.04
2022-08-25T16:34:52.976Z,42.72
2022-08-25T16:35:51.963Z,42.92
2022-08-25T16:36:52.029Z,42.33
2022-08-25T16:37:51.946Z,44.40
2022-08-25T16:38:51.963Z,43.32
2022-08-25T16:39:52.003Z,45.67
2022-08-25T16:40:51.915Z,44.10
2022-08-25T16:41:51.909Z,45.01
2022-08-25T16:42:51.911Z,44.71
2022-08-25T16:43:51.905Z,44.91
2022-08-25T16:44:52.771Z,45.10
2022-08-25T16:45:51.856Z,44.81
2022-08-25T16:46:51.873Z,44.93
2022-08-25T16:47:51.864Z,44.83
2022-08-25T16:48:51.831Z,44.24
2022-08-25T16:49:51.950Z,44.24
2022-08-25T16:50:51.825Z,44.62
2022-08-25T16:51:57.714Z,44.93
2022-08-25T16:52:52.815Z,44.81
2022-08-25T16:53:51.776Z,44.34
2022-08-25T16:54:51.771Z,44.15
2022-08-25T16:55:51.797Z,43.55
2022-08-25T16:56:54.812Z,43.65
2022-08-25T16:57:51.738Z,45.20
2022-08-25T16:58:52.230Z,44.71
2022-08-25T16:59:51.730Z,44.15
2022-08-25T17:00:51.733Z,44.22
2022-08-25T17:01:51.972Z,44.15
2022-08-25T17:02:51.692Z,44.32
2022-08-25T17:03:51.685Z,44.24
2022-08-25T17:04:51.662Z,44.42
2022-08-25T17:05:51.656Z,46.09
2022-08-25T17:06:52.279Z,46.68
2022-08-25T17:07:51.627Z,46.38
2022-08-25T17:08:51.648Z,45.42
2022-08-25T17:09:51.614Z,45.62
2022-08-25T17:10:51.598Z,45.72
2022-08-25T17:11:51.586Z,44.93
2022-08-25T17:12:51.592Z,45.42
2022-08-25T17:13:51.601Z,46.01
2022-08-25T17:14:51.560Z,45.03
2022-08-25T17:15:52.382Z,45.03
2022-08-25T17:16:51.530Z,45.42
2022-08-25T17:17:51.530Z,45.03
2022-08-25T17:18:51.513Z,45.52
2022-08-25T17:19:53.488Z,45.32
2022-08-25T17:20:51.488Z,45.42
2022-08-25T17:21:51.497Z,46.21
2022-08-25T17:22:51.471Z,45.35
2022-08-25T17:23:51.539Z,45.54
2022-08-25T17:24:59.202Z,45.45